createdAt,value
2023-05-20T00:00:33.968Z,101463.56
2023-05-20T00:03:00.998Z,101468.88
2023-05-20T00:05:27.597Z,101468.25
2023-05-20T00:07:54.051Z,101466.97
2023-05-20T00:10:20.585Z,101466.09
2023-05-20T00:12:47.086Z,101452.50
2023-05-20T00:15:13.592Z,101459.28
2023-05-20T00:17:40.198Z,101455.44
2023-05-20T00:20:07.341Z,101453.13
2023-05-20T00:22:33.854Z,101460.97
2023-05-20T00:25:00.293Z,101461.81
2023-05-20T00:27:27.210Z,101451.59
2023-05-20T00:29:53.664Z,101443.09
2023-05-20T00:32:20.114Z,101456.22
2023-05-20T00:34:56.371Z,101455.59
2023-05-20T00:37:22.835Z,101453.47
2023-05-20T00:39:49.333Z,101454.03
2023-05-20T00:42:22.919Z,101451.69
2023-05-20T00:44:49.715Z,101448.09
2023-05-20T00:47:21.120Z,101447.66
2023-05-20T00:49:50.542Z,101444.69
2023-05-20T00:52:21.277Z,101446.78
2023-05-20T00:54:47.783Z,101444.84
2023-05-20T00:57:15.374Z,101446.31
2023-05-20T00:59:43.484Z,101433.56
2023-05-20T01:02:11.437Z,101445.03
2023-05-20T01:04:38.010Z,101436.31
2023-05-20T01:07:06.503Z,101451.38
2023-05-20T01:09:33.495Z,101436.28
2023-05-20T01:12:09.299Z,101442.84
2023-05-20T01:14:40.077Z,101442.41
2023-05-20T01:17:11.141Z,101439.22
2023-05-20T01:22:14.397Z,101424.53
2023-05-20T01:24:42.364Z,101430.25
2023-05-20T01:27:13.627Z,101430.47
2023-05-20T01:29:41.229Z,101427.06
2023-05-20T01:32:16.186Z,101429.81
2023-05-20T01:34:43.900Z,101425.75
2023-05-20T01:37:11.407Z,101433.38
2023-05-20T01:39:41.700Z,101428.91
2023-05-20T01:42:10.271Z,101432.09
2023-05-20T01:44:37.335Z,101427.00
2023-05-20T01:47:04.312Z,101420.19
2023-05-20T01:49:30.975Z,101419.31
2023-05-20T01:51:57.764Z,101428.84
2023-05-20T01:54:24.270Z,101418.88
2023-05-20T01:56:50.947Z,101422.50
2023-05-20T01:59:17.509Z,101427.09
2023-05-20T02:01:44.076Z,101433.66
2023-05-20T02:04:10.694Z,101422.19
2023-05-20T02:06:37.154Z,101421.56
2023-05-20T02:09:03.911Z,101420.03
2023-05-20T02:11:30.411Z,101420.44
2023-05-20T02:13:57.078Z,101428.06
2023-05-20T02:16:23.720Z,101437.56
2023-05-20T02:18:53.078Z,101432.47
2023-05-20T02:21:19.739Z,101419.97
2023-05-20T02:23:46.540Z,101437.72
2023-05-20T02:26:13.092Z,101424.16
2023-05-20T02:28:43.538Z,101429.00
2023-05-20T02:31:09.966Z,101425.78
2023-05-20T02:33:36.411Z,101428.75
2023-05-20T02:36:02.877Z,101422.81
2023-05-20T02:38:31.715Z,101423.22
2023-05-20T02:40:59.833Z,101425.31
2023-05-20T02:43:26.372Z,101414.50
2023-05-20T02:45:52.965Z,101418.09
2023-05-20T02:48:19.423Z,101418.50
2023-05-20T02:50:46.857Z,101416.81
2023-05-20T02:53:13.480Z,101409.59
2023-05-20T02:55:40.921Z,101409.78
2023-05-20T02:58:07.609Z,101426.50
2023-05-20T03:00:40.655Z,101409.31
2023-05-20T03:03:08.241Z,101408.03
2023-05-20T03:05:37.950Z,101419.25
2023-05-20T03:08:10.886Z,101411.34
2023-05-20T03:10:40.551Z,101415.38
2023-05-20T03:13:09.398Z,101416.63
2023-05-20T03:15:36.781Z,101415.91
2023-05-20T03:18:03.665Z,101412.72
2023-05-20T03:20:30.613Z,101423.94
2023-05-20T03:22:57.106Z,101415.88
2023-05-20T03:25:24.610Z,101417.53
2023-05-20T03:27:51.501Z,101420.44
2023-05-20T03:30:17.984Z,101419.59
2023-05-20T03:32:44.903Z,101427.66
2023-05-20T03:35:11.474Z,101424.91
2023-05-20T03:37:37.986Z,101422.81
2023-05-20T03:40:07.849Z,101418.56
2023-05-20T03:42:34.644Z,101430.41
2023-05-20T03:45:01.187Z,101425.94
2023-05-20T03:47:28.675Z,101415.81
2023-05-20T03:49:55.222Z,101412.88
2023-05-20T03:52:21.798Z,101406.31
2023-05-20T03:54:48.240Z,101408.41
2023-05-20T03:57:14.784Z,101405.44
2023-05-20T03:59:41.785Z,101409.06
2023-05-20T04:02:09.066Z,101412.66
2023-05-20T04:04:36.187Z,101412.19
2023-05-20T04:07:05.236Z,101416.00
2023-05-20T04:09:32.021Z,101414.31
2023-05-20T04:11:58.596Z,101417.06
2023-05-20T04:14:25.118Z,101410.25
2023-05-20T04:16:52.457Z,101422.94
2023-05-20T04:19:24.205Z,101418.50
2023-05-20T04:21:50.814Z,101426.53
2023-05-20T04:24:17.368Z,101419.13
2023-05-20T04:26:44.460Z,101413.91
2023-05-20T04:29:11.891Z,101426.81
2023-05-20T04:31:38.594Z,101418.81
2023-05-20T04:34:05.147Z,101416.53
2023-05-20T04:36:31.586Z,101409.78
2023-05-20T04:38:58.012Z,101411.97
2023-05-20T04:41:24.514Z,101416.03
2023-05-20T04:43:50.956Z,101419.69
2023-05-20T04:46:17.448Z,101415.50
2023-05-20T04:48:43.991Z,101410.03
2023-05-20T04:51:11.119Z,101410.50
2023-05-20T04:53:38.098Z,101415.19
2023-05-20T04:56:05.663Z,101408.69
2023-05-20T04:58:33.417Z,101413.19
2023-05-20T05:00:59.960Z,101403.47
2023-05-20T05:03:26.465Z,101404.38
2023-05-20T05:05:56.632Z,101401.06
2023-05-20T05:08:23.190Z,101399.84
2023-05-20T05:10:49.759Z,101396.91
2023-05-20T05:13:16.279Z,101390.19
2023-05-20T05:15:42.806Z,101384.28
2023-05-20T05:18:09.607Z,101376.69
2023-05-20T05:20:36.293Z,101381.81
2023-05-20T05:23:03.149Z,101381.00
2023-05-20T05:25:29.749Z,101377.22
2023-05-20T05:27:56.334Z,101384.63
2023-05-20T05:30:22.856Z,101387.41
2023-05-20T05:32:49.501Z,101380.00
2023-05-20T05:35:16.112Z,101391.69
2023-05-20T05:37:42.510Z,101388.50
2023-05-20T05:40:09.299Z,101398.09
2023-05-20T05:42:35.810Z,101394.28
2023-05-20T05:45:02.211Z,101386.03
2023-05-20T05:47:32.393Z,101391.34
2023-05-20T05:49:59.988Z,101387.97
2023-05-20T05:52:27.241Z,101382.44
2023-05-20T05:54:54.339Z,101387.09
2023-05-20T05:57:20.788Z,101380.31
2023-05-20T05:59:47.227Z,101375.84
2023-05-20T06:02:14.636Z,101380.72
2023-05-20T06:04:41.552Z,101379.03
2023-05-20T06:07:08.126Z,101380.72
2023-05-20T06:09:34.973Z,101377.94
2023-05-20T06:12:02.581Z,101365.59
2023-05-20T06:14:29.115Z,101362.38
2023-05-20T06:16:55.692Z,101353.19
2023-05-20T06:19:22.301Z,101357.63
2023-05-20T06:21:48.820Z,101351.22
2023-05-20T06:24:15.994Z,101343.50
2023-05-20T06:26:42.548Z,101351.94
2023-05-20T06:29:09.036Z,101350.66
2023-05-20T06:31:35.454Z,101351.03
2023-05-20T06:34:01.890Z,101350.78
2023-05-20T06:36:30.279Z,101345.03
2023-05-20T06:38:58.265Z,101348.16
2023-05-20T06:41:24.690Z,101337.44
2023-05-20T06:43:53.324Z,101332.03
2023-05-20T06:46:20.504Z,101326.91
2023-05-20T06:48:46.973Z,101332.34
2023-05-20T06:51:14.080Z,101326.91
2023-05-20T06:53:40.569Z,101323.66
2023-05-20T06:56:07.159Z,101329.50
2023-05-20T06:58:33.629Z,101324.75
2023-05-20T07:01:00.245Z,101318.22
2023-05-20T07:03:26.702Z,101311.53
2023-05-20T07:05:53.337Z,101305.22
2023-05-20T07:08:19.776Z,101303.91
2023-05-20T07:10:46.825Z,101304.06
2023-05-20T07:13:13.436Z,101306.38
2023-05-20T07:15:39.894Z,101303.78
2023-05-20T07:18:06.631Z,101295.19
2023-05-20T07:20:33.204Z,101296.66
2023-05-20T07:23:00.928Z,101307.44
2023-05-20T07:25:27.538Z,101306.13
2023-05-20T07:27:54.247Z,101294.56
2023-05-20T07:30:20.943Z,101291.78
2023-05-20T07:32:47.469Z,101285.31
2023-05-20T07:35:13.968Z,101281.59
2023-05-20T07:37:40.742Z,101274.25
2023-05-20T07:40:07.872Z,101276.81
2023-05-20T07:42:35.105Z,101278.16
2023-05-20T07:45:01.572Z,101268.47
2023-05-20T07:47:28.456Z,101276.41
2023-05-20T07:49:54.983Z,101269.09
2023-05-20T07:52:21.420Z,101263.69
2023-05-20T07:54:47.869Z,101261.28
2023-05-20T07:57:14.350Z,101258.13
2023-05-20T07:59:41.156Z,101252.00
2023-05-20T08:02:08.395Z,101251.38
2023-05-20T08:04:35.291Z,101244.41
2023-05-20T08:07:01.922Z,101248.88
2023-05-20T08:09:28.463Z,101243.56
2023-05-20T08:11:54.921Z,101246.56
2023-05-20T08:14:21.608Z,101248.00
2023-05-20T08:16:48.192Z,101238.31
2023-05-20T08:19:14.928Z,101237.22
2023-05-20T08:21:41.422Z,101229.94
2023-05-20T08:24:08.016Z,101233.19
2023-05-20T08:26:34.466Z,101224.19
2023-05-20T08:29:01.281Z,101232.00
2023-05-20T08:31:28.018Z,101225.34
2023-05-20T08:33:54.565Z,101233.03
2023-05-20T08:36:21.007Z,101230.13
2023-05-20T08:38:47.704Z,101219.59
2023-05-20T08:41:14.150Z,101208.41
2023-05-20T08:43:41.251Z,101217.19
2023-05-20T08:46:08.484Z,101213.72
2023-05-20T08:48:35.821Z,101208.31
2023-05-20T08:51:03.625Z,101211.59
2023-05-20T08:53:30.470Z,101207.09
2023-05-20T08:56:02.629Z,101202.84
2023-05-20T08:58:30.206Z,101201.56
2023-05-20T09:00:56.940Z,101193.69
2023-05-20T09:03:24.386Z,101188.06
2023-05-20T09:05:51.131Z,101192.06
2023-05-20T09:08:17.658Z,101195.47
2023-05-20T09:10:44.185Z,101193.09
2023-05-20T09:13:11.461Z,101185.66
2023-05-20T09:15:39.107Z,101184.09
2023-05-20T09:18:07.459Z,101188.63
2023-05-20T09:20:37.228Z,101183.97
2023-05-20T09:23:06.357Z,101180.44
2023-05-20T09:25:33.484Z,101176.00
2023-05-20T09:28:00.240Z,101168.78
2023-05-20T09:30:27.124Z,101169.94
2023-05-20T09:32:58.383Z,101168.31
2023-05-20T09:35:26.217Z,101167.28
2023-05-20T09:37:54.928Z,101173.25
2023-05-20T09:40:27.912Z,101173.91
2023-05-20T09:42:59.906Z,101168.94
2023-05-20T09:45:27.103Z,101166.53
2023-05-20T09:47:55.033Z,101167.44
2023-05-20T09:50:23.366Z,101169.50
2023-05-20T09:52:51.757Z,101164.22
2023-05-20T09:55:19.858Z,101158.97
2023-05-20T09:57:47.215Z,101153.66
2023-05-20T10:00:17.253Z,101164.63
2023-05-20T10:02:46.132Z,101142.47
2023-05-20T10:05:18.629Z,101148.28
2023-05-20T10:08:20.677Z,101146.69
2023-05-20T10:11:15.921Z,101137.75
2023-05-20T10:14:01.159Z,101128.25
2023-05-20T10:16:45.961Z,101140.00
2023-05-20T10:19:18.425Z,101136.66
2023-05-20T10:21:45.068Z,101128.88
2023-05-20T10:24:11.852Z,101124.69
2023-05-20T10:26:39.718Z,101125.81
2023-05-20T10:29:19.929Z,101121.63
2023-05-20T10:31:51.904Z,101107.63
2023-05-20T10:34:20.966Z,101116.56
2023-05-20T10:36:58.571Z,101110.94
2023-05-20T10:39:30.260Z,101108.47
2023-05-20T10:42:10.559Z,101109.25
2023-05-20T10:44:44.580Z,101114.34
2023-05-20T10:49:47.570Z,101128.63
2023-05-20T10:52:14.728Z,101128.88
2023-05-20T10:54:57.705Z,101127.22
2023-05-20T10:57:26.644Z,101117.69
2023-05-20T10:59:53.423Z,101126.94
2023-05-20T11:02:26.442Z,101124.44
2023-05-20T11:04:53.563Z,101128.34
2023-05-20T11:07:31.444Z,101119.09
2023-05-20T11:09:58.936Z,101135.03
2023-05-20T11:12:27.853Z,101113.47
2023-05-20T11:14:54.736Z,101116.50
2023-05-20T11:17:21.261Z,101108.84
2023-05-20T11:19:48.646Z,101114.91
2023-05-20T11:22:24.219Z,101106.78
2023-05-20T11:24:50.654Z,101117.31
2023-05-20T11:27:17.135Z,101104.13
2023-05-20T11:29:43.625Z,101097.94
2023-05-20T11:32:10.234Z,101093.91
2023-05-20T11:34:38.092Z,101106.00
2023-05-20T11:37:09.310Z,101092.69
2023-05-20T11:39:37.066Z,101092.25
2023-05-20T11:42:03.707Z,101081.72
2023-05-20T11:44:30.268Z,101088.56
2023-05-20T11:47:01.781Z,101093.09
2023-05-20T11:49:28.579Z,101090.75
2023-05-20T11:51:55.086Z,101103.16
2023-05-20T11:54:23.783Z,101094.59
2023-05-20T11:56:50.748Z,101099.22
2023-05-20T11:59:17.265Z,101094.25
2023-05-20T12:01:44.339Z,101092.31
2023-05-20T12:04:11.269Z,101086.78
2023-05-20T12:06:38.082Z,101092.13
2023-05-20T12:09:07.235Z,101098.63
2023-05-20T12:11:39.769Z,101091.34
2023-05-20T12:14:06.729Z,101096.38
2023-05-20T12:16:34.453Z,101096.34
2023-05-20T12:19:01.191Z,101090.78
2023-05-20T12:21:31.530Z,101095.28
2023-05-20T12:24:01.663Z,101085.75
2023-05-20T12:26:29.171Z,101081.78
2023-05-20T12:28:56.089Z,101078.16
2023-05-20T12:31:22.779Z,101073.38
2023-05-20T12:33:49.380Z,101076.75
2023-05-20T12:36:16.430Z,101066.66
2023-05-20T12:38:43.159Z,101068.09
2023-05-20T12:41:09.600Z,101062.19
2023-05-20T12:43:37.486Z,101072.84
2023-05-20T12:46:04.380Z,101062.16
2023-05-20T12:48:30.871Z,101058.25
2023-05-20T12:50:57.363Z,101058.25
2023-05-20T12:53:23.873Z,101052.09
2023-05-20T12:55:50.447Z,101048.75
2023-05-20T12:58:16.951Z,101045.97
2023-05-20T13:00:43.491Z,101043.44
2023-05-20T13:03:10.092Z,101051.53
2023-05-20T13:05:36.669Z,101047.03
2023-05-20T13:08:03.265Z,101038.06
2023-05-20T13:10:29.788Z,101040.00
2023-05-20T13:12:56.618Z,101040.84
2023-05-20T13:15:23.095Z,101034.41
2023-05-20T13:17:49.706Z,101025.16
2023-05-20T13:20:18.386Z,101020.31
2023-05-20T13:22:46.320Z,101026.97
2023-05-20T13:25:12.766Z,101013.16
2023-05-20T13:27:39.315Z,101022.41
2023-05-20T13:30:06.920Z,101009.63
2023-05-20T13:32:33.452Z,101007.09
2023-05-20T13:35:00.098Z,101009.88
2023-05-20T13:37:26.593Z,101009.56
2023-05-20T13:39:53.100Z,100992.19
2023-05-20T13:42:21.438Z,100992.84
2023-05-20T13:44:47.948Z,100996.78
2023-05-20T13:47:14.454Z,100995.44
2023-05-20T13:49:41.022Z,100991.44
2023-05-20T13:52:07.464Z,100988.50
2023-05-20T13:54:33.960Z,100981.75
2023-05-20T13:57:01.353Z,100980.38
2023-05-20T13:59:28.383Z,100982.66
2023-05-20T14:01:54.900Z,100984.81
2023-05-20T14:04:22.303Z,100980.16
2023-05-20T14:06:48.837Z,100988.97
2023-05-20T14:09:15.418Z,100986.94
2023-05-20T14:11:41.996Z,100987.44
2023-05-20T14:14:08.454Z,100978.25
2023-05-20T14:16:34.960Z,100986.34
2023-05-20T14:19:01.450Z,100982.03
2023-05-20T14:21:27.969Z,100971.88
2023-05-20T14:23:54.456Z,100982.03
2023-05-20T14:26:21.703Z,100992.34
2023-05-20T14:28:48.244Z,100997.47
2023-05-20T14:31:14.768Z,100987.19
2023-05-20T14:33:41.242Z,100986.56
2023-05-20T14:36:07.920Z,100983.84
2023-05-20T14:38:34.381Z,100986.41
2023-05-20T14:41:00.798Z,100997.16
2023-05-20T14:43:27.316Z,100996.66
2023-05-20T14:45:53.794Z,100991.94
2023-05-20T14:48:20.285Z,101000.50
2023-05-20T14:50:48.939Z,100995.28
2023-05-20T14:53:17.157Z,101003.22
2023-05-20T14:55:43.635Z,100997.91
2023-05-20T14:58:10.167Z,101000.28
2023-05-20T15:00:36.964Z,101008.16
2023-05-20T15:03:03.907Z,101008.19
2023-05-20T15:05:30.912Z,101006.88
2023-05-20T15:07:57.512Z,101008.78
2023-05-20T15:10:23.943Z,101006.00
2023-05-20T15:12:51.353Z,100997.88
2023-05-20T15:15:17.946Z,101000.13
2023-05-20T15:17:44.453Z,101011.63
2023-05-20T15:20:11.465Z,100999.09
2023-05-20T15:22:38.332Z,100998.22
2023-05-20T15:25:05.751Z,101000.22
2023-05-20T15:27:32.438Z,101012.88
2023-05-20T15:29:59.181Z,101008.41
2023-05-20T15:32:25.804Z,100992.44
2023-05-20T15:34:52.501Z,101003.38
2023-05-20T15:37:19.013Z,101009.00
2023-05-20T15:39:45.534Z,101001.69
2023-05-20T15:42:13.914Z,101005.34
2023-05-20T15:44:40.421Z,100996.38
2023-05-20T15:47:06.897Z,100997.81
2023-05-20T15:49:33.316Z,100994.72
2023-05-20T15:52:03.476Z,101008.19
2023-05-20T15:54:30.877Z,100990.53
2023-05-20T15:56:57.982Z,100993.59
2023-05-20T15:59:24.776Z,101002.84
2023-05-20T16:01:51.621Z,100988.53
2023-05-20T16:04:19.168Z,100991.06
2023-05-20T16:06:45.952Z,100989.38
2023-05-20T16:09:12.368Z,100987.72
2023-05-20T16:11:38.842Z,100983.78
2023-05-20T16:14:05.544Z,100992.47
2023-05-20T16:16:35.075Z,100993.28
2023-05-20T16:19:02.506Z,101002.25
2023-05-20T16:23:55.514Z,100987.69
2023-05-20T16:26:22.687Z,100990.50
2023-05-20T16:28:49.169Z,100994.41
2023-05-20T16:31:16.459Z,100976.78
2023-05-20T16:33:42.996Z,100983.78
2023-05-20T16:36:09.462Z,100985.19
2023-05-20T16:38:36.520Z,100988.53
2023-05-20T16:41:02.976Z,100981.81
2023-05-20T16:43:29.457Z,100998.59
2023-05-20T16:45:56.066Z,100992.75
2023-05-20T16:48:22.571Z,100986.72
2023-05-20T16:50:49.026Z,100997.41
2023-05-20T16:53:16.621Z,100987.41
2023-05-20T16:55:43.279Z,100984.31
2023-05-20T16:58:09.801Z,100978.44
2023-05-20T17:00:36.363Z,100980.88
2023-05-20T17:03:02.965Z,100970.97
2023-05-20T17:05:29.451Z,100967.69
2023-05-20T17:07:59.789Z,100966.06
2023-05-20T17:10:28.459Z,100971.50
2023-05-20T17:12:55.481Z,100967.47
2023-05-20T17:15:23.629Z,100964.34
2023-05-20T17:17:51.594Z,100970.16
2023-05-20T17:20:18.248Z,100972.22
2023-05-20T17:22:44.671Z,100985.53
2023-05-20T17:25:11.407Z,100986.19
2023-05-20T17:27:38.204Z,101000.81
2023-05-20T17:30:05.706Z,100994.75
2023-05-20T17:32:32.232Z,100995.88
2023-05-20T17:34:58.684Z,100985.81
2023-05-20T17:37:25.095Z,100991.47
2023-05-20T17:39:51.537Z,100993.50
2023-05-20T17:42:17.958Z,100990.97
2023-05-20T17:44:44.400Z,100989.59
2023-05-20T17:47:10.958Z,100986.56
2023-05-20T17:49:37.528Z,100992.72
2023-05-20T17:52:04.261Z,100983.50
2023-05-20T17:54:30.969Z,100985.47
2023-05-20T17:56:57.459Z,100991.63
2023-05-20T17:59:25.420Z,100987.16
2023-05-20T18:01:53.851Z,100990.22
2023-05-20T18:04:21.326Z,100992.75
2023-05-20T18:06:47.798Z,100993.31
2023-05-20T18:09:14.396Z,101005.31
2023-05-20T18:11:41.199Z,100998.59
2023-05-20T18:14:07.796Z,101007.00
2023-05-20T18:16:34.888Z,101004.19
2023-05-20T18:19:02.613Z,101000.81
2023-05-20T18:21:29.410Z,101002.78
2023-05-20T18:23:56.404Z,101005.28
2023-05-20T18:26:23.181Z,101006.13
2023-05-20T18:28:50.094Z,100995.47
2023-05-20T18:31:16.754Z,101003.84
2023-05-20T18:33:43.212Z,101011.13
2023-05-20T18:36:09.743Z,101005.50
2023-05-20T18:38:36.545Z,101006.59
2023-05-20T18:41:04.011Z,101001.25
2023-05-20T18:43:30.510Z,101007.66
2023-05-20T18:45:57.057Z,101004.84
2023-05-20T18:48:27.139Z,101005.38
2023-05-20T18:50:58.559Z,101003.69
2023-05-20T18:53:25.048Z,101005.59
2023-05-20T18:55:51.815Z,101009.16
2023-05-20T18:58:18.286Z,101021.69
2023-05-20T19:00:44.789Z,101016.91
2023-05-20T19:03:11.686Z,101017.94
2023-05-20T19:05:38.627Z,101018.94
2023-05-20T19:08:05.922Z,101014.97
2023-05-20T19:10:32.937Z,101034.69
2023-05-20T19:12:59.711Z,101021.75
2023-05-20T19:15:26.566Z,101025.31
2023-05-20T19:17:53.132Z,101037.50
2023-05-20T19:20:19.931Z,101035.72
2023-05-20T19:22:46.691Z,101043.97
2023-05-20T19:25:13.362Z,101040.25
2023-05-20T19:27:39.873Z,101041.78
2023-05-20T19:30:09.162Z,101042.50
2023-05-20T19:32:37.146Z,101042.38
2023-05-20T19:35:05.752Z,101045.63
2023-05-20T19:37:32.359Z,101041.59
2023-05-20T19:39:58.777Z,101046.53
2023-05-20T19:42:25.217Z,101053.16
2023-05-20T19:44:51.662Z,101047.41
2023-05-20T19:47:18.184Z,101056.81
2023-05-20T19:49:44.637Z,101053.38
2023-05-20T19:52:11.127Z,101051.00
2023-05-20T19:54:37.771Z,101049.50
2023-05-20T19:57:04.350Z,101051.03
2023-05-20T19:59:30.838Z,101049.75
2023-05-20T20:02:02.640Z,101048.25
2023-05-20T20:04:29.805Z,101051.19
2023-05-20T20:06:56.352Z,101050.78
2023-05-20T20:09:22.849Z,101051.47
2023-05-20T20:11:49.283Z,101045.78
2023-05-20T20:14:16.186Z,101052.09
2023-05-20T20:16:48.890Z,101050.34
2023-05-20T20:19:22.818Z,101054.38
2023-05-20T20:21:52.974Z,101058.41
2023-05-20T20:24:20.087Z,101053.84
2023-05-20T20:26:49.222Z,101050.97
2023-05-20T20:29:15.722Z,101045.81
2023-05-20T20:31:42.251Z,101054.03
2023-05-20T20:34:08.853Z,101041.09
2023-05-20T20:36:35.395Z,101037.13
2023-05-20T20:39:04.906Z,101044.31
2023-05-20T20:41:32.250Z,101044.19
2023-05-20T20:43:59.374Z,101043.84
2023-05-20T20:46:27.646Z,101042.88
2023-05-20T20:48:54.268Z,101047.25
2023-05-20T20:51:20.811Z,101052.44
2023-05-20T20:53:48.622Z,101046.53
2023-05-20T20:56:15.210Z,101051.75
2023-05-20T20:58:41.729Z,101053.31
2023-05-20T21:01:10.055Z,101049.38
2023-05-20T21:03:40.236Z,101039.50
2023-05-20T21:06:07.725Z,101037.19
2023-05-20T21:08:34.243Z,101046.84
2023-05-20T21:11:00.681Z,101048.19
2023-05-20T21:13:27.713Z,101041.44
2023-05-20T21:15:54.549Z,101037.47
2023-05-20T21:18:24.280Z,101040.13
2023-05-20T21:20:52.413Z,101035.06
2023-05-20T21:23:20.514Z,101030.84
2023-05-20T21:25:47.590Z,101037.69
2023-05-20T21:28:14.557Z,101027.09
2023-05-20T21:30:41.074Z,101037.84
2023-05-20T21:33:07.713Z,101042.53
2023-05-20T21:35:34.491Z,101026.38
2023-05-20T21:38:01.112Z,101027.72
2023-05-20T21:40:27.621Z,101022.63
2023-05-20T21:42:54.118Z,101028.66
2023-05-20T21:45:20.627Z,101026.59
2023-05-20T21:47:47.213Z,101023.69
2023-05-20T21:50:13.800Z,101028.75
2023-05-20T21:52:40.284Z,101020.56
2023-05-20T21:55:10.592Z,101018.50
2023-05-20T21:57:37.491Z,101026.09
2023-05-20T22:00:09.938Z,101020.19
2023-05-20T22:02:37.273Z,101019.81
2023-05-20T22:05:04.846Z,101026.09
2023-05-20T22:07:31.758Z,101024.88
2023-05-20T22:09:58.634Z,101018.72
2023-05-20T22:12:25.401Z,101020.91
2023-05-20T22:14:51.845Z,101025.22
2023-05-20T22:17:18.376Z,101030.41
2023-05-20T22:19:44.830Z,101025.09
2023-05-20T22:22:11.295Z,101015.34
2023-05-20T22:24:37.740Z,101009.16
2023-05-20T22:27:04.530Z,101027.13
2023-05-20T22:29:32.457Z,101001.59
2023-05-20T22:31:59.243Z,101006.50
2023-05-20T22:34:26.059Z,101014.22
2023-05-20T22:36:53.896Z,101006.41
2023-05-20T22:39:21.529Z,100996.88
2023-05-20T22:41:48.026Z,100992.63
2023-05-20T22:44:14.762Z,100997.31
2023-05-20T22:46:41.299Z,100994.16
2023-05-20T22:49:07.840Z,100995.28
2023-05-20T22:51:35.174Z,100992.72
2023-05-20T22:54:01.813Z,100995.13
2023-05-20T22:56:29.591Z,100990.91
2023-05-20T22:58:56.045Z,100986.44
2023-05-20T23:01:22.547Z,100975.00
2023-05-20T23:03:49.168Z,100981.84
2023-05-20T23:06:15.690Z,100981.22
2023-05-20T23:08:44.423Z,100974.44
2023-05-20T23:11:11.204Z,100976.63
2023-05-20T23:13:37.635Z,100966.13
2023-05-20T23:16:05.954Z,100968.31
2023-05-20T23:18:33.205Z,100966.59
2023-05-20T23:20:59.729Z,100960.00
2023-05-20T23:23:31.266Z,100962.78
2023-05-20T23:25:58.798Z,100958.28
2023-05-20T23:28:25.425Z,100965.53
2023-05-20T23:30:51.909Z,100952.75
2023-05-20T23:33:24.301Z,100956.59
2023-05-20T23:35:51.972Z,100958.56
2023-05-20T23:38:18.675Z,100950.47
2023-05-20T23:40:45.106Z,100952.66
2023-05-20T23:43:11.584Z,100950.94
2023-05-20T23:45:38.249Z,100950.94
2023-05-20T23:48:06.096Z,100945.41
2023-05-20T23:50:32.843Z,100947.56
2023-05-20T23:52:59.706Z,100954.78
2023-05-20T23:55:28.336Z,100949.25
2023-05-20T23:57:55.049Z,100952.00
